createdAt,value
2019-05-05T00:00:06.674Z,991.05
2019-05-05T00:02:46.303Z,991.09
2019-05-05T00:03:46.208Z,991.15
2019-05-05T00:04:46.162Z,991.13
2019-05-05T00:05:46.185Z,991.15
2019-05-05T00:06:46.143Z,991.19
2019-05-05T00:07:46.078Z,991.20
2019-05-05T00:08:46.081Z,991.18
2019-05-05T00:09:46.035Z,991.17
2019-05-05T00:10:46.060Z,991.18
2019-05-05T00:11:45.996Z,991.25
2019-05-05T00:12:45.975Z,991.23
2019-05-05T00:13:45.957Z,991.23
2019-05-05T00:14:45.964Z,991.24
2019-05-05T00:15:45.922Z,991.26
2019-05-05T00:16:45.898Z,991.26
2019-05-05T00:17:45.898Z,991.26
2019-05-05T00:18:45.854Z,991.26
2019-05-05T00:19:45.837Z,991.30
2019-05-05T00:20:45.817Z,991.27
2019-05-05T00:21:45.820Z,991.29
2019-05-05T00:22:45.783Z,991.28
2019-05-05T00:23:45.780Z,991.28
2019-05-05T00:24:45.743Z,991.29
2019-05-05T00:25:45.722Z,991.25
2019-05-05T00:26:46.133Z,991.29
2019-05-05T00:27:45.667Z,991.29
2019-05-05T00:28:45.667Z,991.29
2019-05-05T00:29:45.639Z,991.29
2019-05-05T00:30:45.608Z,991.32
2019-05-05T00:31:45.599Z,991.34
2019-05-05T00:32:45.578Z,991.35
2019-05-05T00:33:45.547Z,991.31
2019-05-05T00:34:45.530Z,991.31
2019-05-05T00:35:45.510Z,991.31
2019-05-05T00:36:45.485Z,991.34
2019-05-05T00:37:45.479Z,991.38
2019-05-05T00:38:45.455Z,991.33
2019-05-05T00:39:45.430Z,991.35
2019-05-05T00:40:45.415Z,991.37
2019-05-05T00:41:45.404Z,991.40
2019-05-05T00:42:45.634Z,991.41
2019-05-05T00:43:45.349Z,991.39
2019-05-05T00:44:45.338Z,991.44
2019-05-05T00:45:45.313Z,991.42
2019-05-05T00:46:45.291Z,991.42
2019-05-05T00:47:45.275Z,991.44
2019-05-05T00:48:45.274Z,991.45
2019-05-05T00:49:49.111Z,991.44
2019-05-05T00:50:45.211Z,991.49
2019-05-05T00:51:45.181Z,991.45
2019-05-05T00:52:45.188Z,991.48
2019-05-05T00:53:45.163Z,991.46
2019-05-05T00:54:45.127Z,991.47
2019-05-05T00:55:45.105Z,991.51
2019-05-05T00:56:45.217Z,991.50
2019-05-05T00:57:45.441Z,991.52
2019-05-05T00:58:45.063Z,991.55
2019-05-05T00:59:45.328Z,991.57
2019-05-05T01:00:45.024Z,991.57
2019-05-05T01:01:44.986Z,991.58
2019-05-05T01:02:45.018Z,991.58
2019-05-05T01:03:44.940Z,991.60
2019-05-05T01:04:44.917Z,991.62
2019-05-05T01:05:44.939Z,991.61
2019-05-05T01:06:45.096Z,991.58
2019-05-05T01:07:44.860Z,991.63
2019-05-05T01:08:44.843Z,991.63
2019-05-05T01:09:45.178Z,991.58
2019-05-05T01:10:44.798Z,991.62
2019-05-05T01:11:44.781Z,991.64
2019-05-05T01:12:45.065Z,991.68
2019-05-05T01:13:45.490Z,991.70
2019-05-05T01:14:44.897Z,991.71
2019-05-05T01:15:44.933Z,991.75
2019-05-05T01:16:45.618Z,991.74
2019-05-05T01:17:45.190Z,991.75
2019-05-05T01:18:45.124Z,991.75
2019-05-05T01:19:46.715Z,991.74
2019-05-05T01:20:44.911Z,991.82
2019-05-05T01:21:45.439Z,991.78
2019-05-05T01:22:44.891Z,991.80
2019-05-05T01:23:45.545Z,991.86
2019-05-05T01:24:45.835Z,991.84
2019-05-05T01:25:45.522Z,991.89
2019-05-05T01:26:44.705Z,991.89
2019-05-05T01:27:45.326Z,991.91
2019-05-05T01:28:44.761Z,991.97
2019-05-05T01:29:45.226Z,992.03
2019-05-05T01:30:44.545Z,992.00
2019-05-05T01:31:45.173Z,992.01
2019-05-05T01:32:44.722Z,992.05
2019-05-05T01:33:44.872Z,992.06
2019-05-05T01:34:44.921Z,992.11
2019-05-05T01:35:44.884Z,992.14
2019-05-05T01:36:45.144Z,992.16
2019-05-05T01:37:45.012Z,992.16
2019-05-05T01:38:44.765Z,992.19
2019-05-05T01:39:45.213Z,992.22
2019-05-05T01:40:44.748Z,992.18
2019-05-05T01:41:45.285Z,992.20
2019-05-05T01:42:44.723Z,992.21
2019-05-05T01:43:45.190Z,992.19
2019-05-05T01:44:45.095Z,992.25
2019-05-05T01:45:45.331Z,992.22
2019-05-05T01:46:44.546Z,992.25
2019-05-05T01:47:45.320Z,992.24
2019-05-05T01:48:44.572Z,992.31
2019-05-05T01:49:45.265Z,992.33
2019-05-05T01:50:45.297Z,992.33
2019-05-05T01:51:44.758Z,992.33
2019-05-05T01:52:45.078Z,992.33
2019-05-05T01:53:44.419Z,992.42
2019-05-05T01:54:44.858Z,992.37
2019-05-05T01:55:47.338Z,992.40
2019-05-05T02:06:49.281Z,992.43
2019-05-05T02:09:15.726Z,992.43
2019-05-05T02:10:15.205Z,992.44
2019-05-05T02:11:15.491Z,992.42
2019-05-05T02:12:13.225Z,992.43
2019-05-05T02:13:13.361Z,992.46
2019-05-05T02:14:15.472Z,992.47
2019-05-05T02:15:14.946Z,992.46
2019-05-05T02:16:14.960Z,992.48
2019-05-05T02:17:14.419Z,992.45
2019-05-05T02:18:14.844Z,992.44
2019-05-05T02:19:14.299Z,992.47
2019-05-05T02:20:14.577Z,992.46
2019-05-05T02:21:14.286Z,992.44
2019-05-05T02:22:14.688Z,992.47
2019-05-05T02:23:15.022Z,992.53
2019-05-05T02:24:14.505Z,992.51
2019-05-05T02:25:14.586Z,992.50
2019-05-05T02:26:14.730Z,992.52
2019-05-05T02:27:14.593Z,992.52
2019-05-05T02:28:14.789Z,992.50
2019-05-05T02:29:14.217Z,992.51
2019-05-05T02:32:25.983Z,992.48
2019-05-05T02:33:15.738Z,992.49
2019-05-05T03:29:33.562Z,993.27
2019-05-05T03:30:35.503Z,993.28
2019-05-05T03:32:58.528Z,993.33
2019-05-05T03:33:58.334Z,993.34
2019-05-05T03:37:09.011Z,993.38
2019-05-05T03:38:08.763Z,993.34
2019-05-05T03:39:08.709Z,993.33
2019-05-05T03:40:08.661Z,993.31
2019-05-05T03:41:08.654Z,993.31
2019-05-05T03:42:08.569Z,993.34
2019-05-05T03:43:08.542Z,993.37
2019-05-05T03:44:08.495Z,993.38
2019-05-05T03:45:08.492Z,993.35
2019-05-05T03:46:08.590Z,993.39
2019-05-05T03:49:24.260Z,993.44
2019-05-05T03:50:23.288Z,993.43
2019-05-05T03:51:24.223Z,993.44
2019-05-05T03:52:21.966Z,993.43
2019-05-05T03:53:24.422Z,993.46
2019-05-05T03:54:23.754Z,993.45
2019-05-05T03:55:21.575Z,993.47
2019-05-05T03:56:21.538Z,993.47
2019-05-05T03:57:21.470Z,993.52
2019-05-05T03:58:21.476Z,993.47
2019-05-05T03:59:21.474Z,993.50
2019-05-05T04:00:23.482Z,993.53
2019-05-05T04:01:21.372Z,993.53
2019-05-05T04:02:23.346Z,993.53
2019-05-05T04:03:21.449Z,993.53
2019-05-05T04:04:21.327Z,993.55
2019-05-05T04:05:23.447Z,993.59
2019-05-05T04:06:23.451Z,993.57
2019-05-05T04:07:21.276Z,993.58
2019-05-05T04:08:23.393Z,993.59
2019-05-05T04:09:21.237Z,993.63
2019-05-05T04:10:21.174Z,993.64
2019-05-05T04:11:21.211Z,993.62
2019-05-05T04:12:21.200Z,993.60
2019-05-05T04:13:21.204Z,993.61
2019-05-05T04:14:21.120Z,993.65
2019-05-05T04:15:21.103Z,993.58
2019-05-05T04:16:21.049Z,993.60
2019-05-05T04:17:21.055Z,993.57
2019-05-05T04:18:21.022Z,993.57
2019-05-05T04:19:21.019Z,993.61
2019-05-05T04:20:21.024Z,993.61
2019-05-05T04:40:57.434Z,993.80
2019-05-05T04:41:57.357Z,993.84
2019-05-05T04:42:57.338Z,993.80
2019-05-05T04:43:56.997Z,993.85
2019-05-05T04:44:57.155Z,993.85
2019-05-05T04:45:56.906Z,993.90
2019-05-05T04:46:56.875Z,993.90
2019-05-05T04:47:56.837Z,993.92
2019-05-05T04:48:56.826Z,993.90
2019-05-05T04:49:56.812Z,993.89
2019-05-05T04:50:56.777Z,993.93
2019-05-05T04:51:56.759Z,993.92
2019-05-05T04:52:56.734Z,993.94
2019-05-05T04:53:56.744Z,993.93
2019-05-05T04:54:56.695Z,993.95
2019-05-05T04:55:56.691Z,993.97
2019-05-05T04:56:56.664Z,993.95
2019-05-05T04:57:56.643Z,993.96
2019-05-05T04:58:56.624Z,993.91
2019-05-05T04:59:56.828Z,993.94
2019-05-05T05:03:04.879Z,993.91
2019-05-05T05:04:04.578Z,993.94
2019-05-05T05:06:09.468Z,993.92
2019-05-05T05:07:09.258Z,993.91
2019-05-05T05:08:09.231Z,993.90
2019-05-05T05:09:09.208Z,993.89
2019-05-05T05:10:09.160Z,993.91
2019-05-05T05:11:09.168Z,993.91
2019-05-05T05:12:09.120Z,993.92
2019-05-05T05:13:09.092Z,993.91
2019-05-05T05:14:09.101Z,993.92
2019-05-05T05:15:09.069Z,993.90
2019-05-05T05:16:09.046Z,993.96
2019-05-05T05:17:09.064Z,993.94
2019-05-05T05:18:09.037Z,993.97
2019-05-05T05:19:08.997Z,993.98
2019-05-05T05:20:08.954Z,993.95
2019-05-05T05:21:08.971Z,993.97
2019-05-05T05:22:08.948Z,993.96
2019-05-05T05:23:08.936Z,994.00
2019-05-05T05:24:08.894Z,993.97
2019-05-05T05:25:08.895Z,993.97
2019-05-05T05:26:08.886Z,993.98
2019-05-05T05:27:08.861Z,993.97
2019-05-05T05:28:08.815Z,993.93
2019-05-05T05:29:08.771Z,993.93
2019-05-05T05:30:08.751Z,993.94
2019-05-05T05:31:08.734Z,993.94
2019-05-05T05:32:08.786Z,993.97
2019-05-05T05:33:08.800Z,993.96
2019-05-05T05:34:08.771Z,993.93
2019-05-05T05:35:08.721Z,993.97
2019-05-05T05:36:08.696Z,993.95
2019-05-05T05:37:08.643Z,993.95
2019-05-05T05:38:08.680Z,993.94
2019-05-05T05:39:08.669Z,993.88
2019-05-05T05:40:08.666Z,993.90
2019-05-05T05:41:08.641Z,993.94
2019-05-05T05:42:08.660Z,993.95
2019-05-05T05:43:08.660Z,993.91
2019-05-05T05:44:08.556Z,993.92
2019-05-05T05:45:08.536Z,993.96
2019-05-05T05:46:08.465Z,993.96
2019-05-05T05:47:08.433Z,994.03
2019-05-05T05:48:08.416Z,993.98
2019-05-05T05:49:08.395Z,993.99
2019-05-05T05:50:08.379Z,993.95
2019-05-05T05:51:08.352Z,993.95
2019-05-05T05:52:15.966Z,993.95
2019-05-05T05:53:08.364Z,994.00
2019-05-05T05:54:08.302Z,994.05
2019-05-05T05:55:08.325Z,994.03
2019-05-05T05:56:08.284Z,994.01
2019-05-05T05:57:08.244Z,994.02
2019-05-05T05:58:08.235Z,994.02
2019-05-05T05:59:08.201Z,994.01
2019-05-05T06:00:08.209Z,994.07
2019-05-05T06:01:08.171Z,994.06
2019-05-05T06:02:11.781Z,994.08
2019-05-05T06:03:08.131Z,994.07
2019-05-05T06:04:08.166Z,994.08
2019-05-05T06:05:08.113Z,994.10
2019-05-05T06:06:08.083Z,994.13
2019-05-05T06:07:08.073Z,994.20
2019-05-05T06:08:08.043Z,994.22
2019-05-05T06:09:08.025Z,994.23
2019-05-05T06:10:21.091Z,994.24
2019-05-05T06:11:08.204Z,994.28
2019-05-05T06:12:08.076Z,994.23
2019-05-05T06:13:08.067Z,994.23
2019-05-05T06:14:08.169Z,994.23
2019-05-05T06:15:08.237Z,994.22
2019-05-05T06:16:08.133Z,994.24
2019-05-05T06:17:08.121Z,994.23
2019-05-05T06:18:08.228Z,994.29
2019-05-05T06:19:10.204Z,994.30
2019-05-05T06:20:08.170Z,994.33
2019-05-05T06:21:08.220Z,994.35
2019-05-05T06:22:08.006Z,994.35
2019-05-05T06:23:08.178Z,994.34
2019-05-05T06:24:08.158Z,994.32
2019-05-05T06:25:08.164Z,994.32
2019-05-05T06:26:07.918Z,994.32
2019-05-05T06:27:08.127Z,994.35
2019-05-05T06:28:07.940Z,994.37
2019-05-05T06:29:07.954Z,994.35
2019-05-05T06:30:08.328Z,994.37
2019-05-05T06:31:07.948Z,994.38
2019-05-05T06:32:07.950Z,994.43
2019-05-05T06:33:07.894Z,994.47
2019-05-05T06:34:07.933Z,994.43
2019-05-05T06:35:07.740Z,994.46
2019-05-05T06:36:07.804Z,994.49
2019-05-05T06:37:07.849Z,994.53
2019-05-05T06:38:07.675Z,994.48
2019-05-05T06:39:07.829Z,994.49
2019-05-05T06:40:07.631Z,994.50
2019-05-05T06:41:07.596Z,994.50
2019-05-05T06:42:07.819Z,994.50
2019-05-05T06:43:07.566Z,994.52
2019-05-05T06:44:07.676Z,994.56
2019-05-05T06:45:07.600Z,994.53
2019-05-05T06:46:07.744Z,994.53
2019-05-05T06:47:07.483Z,994.57
2019-05-05T06:48:07.526Z,994.54
2019-05-05T06:49:07.487Z,994.58
2019-05-05T06:50:07.403Z,994.55
2019-05-05T06:51:07.465Z,994.59
2019-05-05T06:52:07.394Z,994.61
2019-05-05T06:53:07.296Z,994.59
2019-05-05T06:54:07.273Z,994.56
2019-05-05T06:55:07.243Z,994.56
2019-05-05T06:56:07.241Z,994.59
2019-05-05T06:57:07.189Z,994.53
2019-05-05T06:58:07.227Z,994.56
2019-05-05T06:59:07.172Z,994.48
2019-05-05T07:00:07.156Z,994.53
2019-05-05T07:01:07.157Z,994.51
2019-05-05T07:02:07.104Z,994.55
2019-05-05T07:03:07.898Z,994.54
2019-05-05T07:04:07.087Z,994.54
2019-05-05T07:05:07.081Z,994.57
2019-05-05T07:06:07.196Z,994.60
2019-05-05T07:07:07.113Z,994.56
2019-05-05T07:08:07.362Z,994.57
2019-05-05T07:09:07.289Z,994.54
2019-05-05T07:10:07.143Z,994.49
2019-05-05T07:11:07.284Z,994.54
2019-05-05T07:12:07.119Z,994.48
2019-05-05T07:13:07.182Z,994.48
2019-05-05T07:14:06.907Z,994.45
2019-05-05T07:15:06.915Z,994.46
2019-05-05T07:16:06.878Z,994.49
2019-05-05T07:17:06.863Z,994.49
2019-05-05T07:18:06.840Z,994.42
2019-05-05T07:19:06.841Z,994.50
2019-05-05T07:20:06.811Z,994.53
2019-05-05T07:21:06.800Z,994.50
2019-05-05T07:22:06.785Z,994.56
2019-05-05T07:23:06.796Z,994.52
2019-05-05T07:24:06.758Z,994.49
2019-05-05T07:25:06.735Z,994.56
2019-05-05T07:26:06.736Z,994.51
2019-05-05T07:27:06.711Z,994.49
2019-05-05T07:28:06.754Z,994.47
2019-05-05T07:29:06.679Z,994.46
2019-05-05T07:30:06.656Z,994.42
2019-05-05T07:31:06.663Z,994.43
2019-05-05T07:32:06.635Z,994.46
2019-05-05T07:33:06.616Z,994.45
2019-05-05T07:34:06.603Z,994.46
2019-05-05T07:35:06.590Z,994.53
2019-05-05T07:36:06.595Z,994.52
2019-05-05T07:37:06.566Z,994.52
2019-05-05T07:38:06.552Z,994.58
2019-05-05T07:39:06.531Z,994.58
2019-05-05T07:40:06.515Z,994.63
2019-05-05T07:41:06.520Z,994.59
2019-05-05T07:42:06.551Z,994.60
2019-05-05T07:43:06.470Z,994.59
2019-05-05T07:44:06.473Z,994.61
2019-05-05T07:45:19.447Z,994.62
2019-05-05T07:46:06.433Z,994.57
2019-05-05T07:47:06.426Z,994.59
2019-05-05T07:48:06.422Z,994.60
2019-05-05T07:49:06.391Z,994.59
2019-05-05T07:50:06.383Z,994.61
2019-05-05T07:51:06.370Z,994.58
2019-05-05T07:52:06.396Z,994.59
2019-05-05T07:53:14.416Z,994.57
2019-05-05T07:54:06.333Z,994.56
2019-05-05T07:55:06.322Z,994.63
2019-05-05T07:56:07.726Z,994.61
2019-05-05T07:57:06.298Z,994.60
2019-05-05T07:58:06.300Z,994.59
2019-05-05T07:59:06.276Z,994.55
2019-05-05T08:00:06.254Z,994.62
2019-05-05T08:01:06.246Z,994.61
2019-05-05T08:02:06.248Z,994.62
2019-05-05T08:03:06.218Z,994.62
2019-05-05T08:04:06.209Z,994.60
2019-05-05T08:05:06.200Z,994.62
2019-05-05T08:06:06.183Z,994.68
2019-05-05T08:07:06.193Z,994.67
2019-05-05T08:08:06.155Z,994.70
2019-05-05T08:09:06.146Z,994.71
2019-05-05T08:10:06.131Z,994.71
2019-05-05T08:11:06.132Z,994.77
2019-05-05T08:12:06.114Z,994.76
2019-05-05T08:13:06.090Z,994.74
2019-05-05T08:14:06.080Z,994.73
2019-05-05T08:15:06.075Z,994.73
2019-05-05T08:16:06.063Z,994.70
2019-05-05T08:17:06.050Z,994.67
2019-05-05T08:18:06.043Z,994.67
2019-05-05T08:19:06.030Z,994.70
2019-05-05T08:20:06.032Z,994.71
2019-05-05T08:21:06.000Z,994.67
2019-05-05T08:22:06.218Z,994.74
2019-05-05T08:23:08.249Z,994.73
2019-05-05T08:24:05.972Z,994.68
2019-05-05T08:25:05.969Z,994.64
2019-05-05T08:26:05.951Z,994.63
2019-05-05T08:27:05.968Z,994.66
2019-05-05T08:28:05.927Z,994.64
2019-05-05T08:29:05.930Z,994.58
2019-05-05T08:30:05.908Z,994.64
2019-05-05T08:31:05.895Z,994.66
2019-05-05T08:32:05.892Z,994.66
2019-05-05T08:33:05.874Z,994.72
2019-05-05T08:34:05.873Z,994.63
2019-05-05T08:35:05.858Z,994.67
2019-05-05T08:36:05.863Z,994.62
2019-05-05T08:37:05.841Z,994.62
2019-05-05T08:38:05.832Z,994.62
2019-05-05T08:39:05.814Z,994.57
2019-05-05T08:40:05.811Z,994.56
2019-05-05T08:41:05.799Z,994.62
2019-05-05T08:42:05.798Z,994.62
2019-05-05T08:43:05.788Z,994.60
2019-05-05T08:44:05.770Z,994.62
2019-05-05T08:45:05.761Z,994.64
2019-05-05T08:46:05.763Z,994.63
2019-05-05T08:47:05.749Z,994.66
2019-05-05T08:48:05.756Z,994.63
2019-05-05T08:49:05.728Z,994.66
2019-05-05T08:50:05.722Z,994.71
2019-05-05T08:51:05.710Z,994.70
2019-05-05T08:52:05.721Z,994.74
2019-05-05T08:53:08.401Z,994.78
2019-05-05T08:54:05.680Z,994.78
2019-05-05T08:55:05.670Z,994.81
2019-05-05T08:56:05.664Z,994.82
2019-05-05T08:57:05.662Z,994.79
2019-05-05T08:58:05.640Z,994.84
2019-05-05T08:59:05.653Z,994.86
2019-05-05T09:00:05.648Z,994.86
2019-05-05T09:01:05.600Z,994.93
2019-05-05T09:02:05.602Z,994.90
2019-05-05T09:03:05.585Z,994.84
2019-05-05T09:04:05.571Z,994.82
2019-05-05T09:05:05.561Z,994.88
2019-05-05T09:06:05.561Z,994.85
2019-05-05T09:07:05.592Z,994.87
2019-05-05T09:08:05.524Z,994.83
2019-05-05T09:09:05.514Z,994.88
2019-05-05T09:10:05.500Z,994.90
2019-05-05T09:11:05.492Z,994.88
2019-05-05T09:12:05.474Z,994.89
2019-05-05T09:13:05.462Z,994.92
2019-05-05T09:14:05.448Z,994.89
2019-05-05T09:15:05.436Z,994.90
2019-05-05T09:16:05.430Z,994.93
2019-05-05T09:17:05.406Z,994.92
2019-05-05T09:18:05.396Z,994.93
2019-05-05T09:19:05.513Z,994.94
2019-05-05T09:20:05.366Z,994.91
2019-05-05T09:21:05.358Z,994.86
2019-05-05T09:22:08.608Z,994.90
2019-05-05T09:23:05.350Z,994.90
2019-05-05T09:24:05.450Z,994.97
2019-05-05T09:25:05.308Z,994.87
2019-05-05T09:26:05.295Z,994.92
2019-05-05T09:27:05.278Z,994.87
2019-05-05T09:28:06.145Z,994.86
2019-05-05T09:29:05.247Z,994.90
2019-05-05T09:30:05.237Z,994.97
2019-05-05T09:31:05.224Z,994.89
2019-05-05T09:32:05.218Z,994.94
2019-05-05T09:33:05.213Z,994.88
2019-05-05T09:34:05.196Z,994.86
2019-05-05T09:35:05.180Z,994.85
2019-05-05T09:36:05.167Z,994.85
2019-05-05T09:37:05.163Z,994.86
2019-05-05T09:38:05.143Z,994.90
2019-05-05T09:39:05.133Z,994.94
2019-05-05T09:40:05.126Z,994.92
2019-05-05T09:41:05.114Z,994.87
2019-05-05T09:42:05.113Z,994.87
2019-05-05T09:43:05.121Z,994.86
2019-05-05T09:44:05.096Z,994.86
2019-05-05T09:45:05.080Z,994.88
2019-05-05T09:46:05.067Z,994.91
2019-05-05T09:47:05.088Z,994.91
2019-05-05T09:48:05.148Z,994.93
2019-05-05T09:49:05.040Z,994.96
2019-05-05T09:50:05.025Z,994.89
2019-05-05T09:51:05.038Z,994.97
2019-05-05T09:52:05.158Z,994.99
2019-05-05T09:53:05.009Z,994.96
2019-05-05T09:54:14.101Z,995.03
2019-05-05T09:55:04.992Z,994.93
2019-05-05T09:56:04.999Z,994.99
2019-05-05T09:57:04.978Z,995.00
2019-05-05T09:58:04.965Z,994.98
2019-05-05T09:59:04.970Z,994.96
2019-05-05T10:00:04.955Z,995.04
2019-05-05T10:01:04.975Z,995.03
2019-05-05T10:02:04.949Z,994.99
2019-05-05T10:03:04.928Z,995.05
2019-05-05T10:04:04.922Z,995.01
2019-05-05T10:05:04.916Z,995.00
2019-05-05T10:06:05.231Z,995.00
2019-05-05T10:07:04.949Z,994.95
2019-05-05T10:08:04.917Z,994.94
2019-05-05T10:09:04.883Z,994.95
2019-05-05T10:10:04.875Z,994.92
2019-05-05T10:11:04.869Z,994.90
2019-05-05T10:12:05.003Z,994.93
2019-05-05T10:13:04.846Z,994.94
2019-05-05T10:14:04.850Z,994.94
2019-05-05T10:15:07.509Z,994.93
2019-05-05T10:16:04.842Z,994.93
2019-05-05T10:17:05.070Z,994.93
2019-05-05T10:18:04.804Z,994.98
2019-05-05T10:19:04.834Z,994.93
2019-05-05T10:20:04.779Z,994.97
2019-05-05T10:21:04.813Z,995.00
2019-05-05T10:22:04.756Z,994.95
2019-05-05T10:23:04.762Z,995.03
2019-05-05T10:24:04.735Z,994.96
2019-05-05T10:25:04.721Z,994.98
2019-05-05T10:26:04.724Z,994.98
2019-05-05T10:27:05.021Z,995.01
2019-05-05T10:28:04.694Z,995.00
2019-05-05T10:29:04.669Z,995.02
2019-05-05T10:30:04.659Z,994.99
2019-05-05T10:31:04.816Z,994.98
2019-05-05T10:32:04.792Z,995.02
2019-05-05T10:33:04.623Z,995.06
2019-05-05T10:34:04.650Z,995.04
2019-05-05T10:35:04.838Z,995.03
2019-05-05T10:36:04.584Z,995.02
2019-05-05T10:37:04.580Z,995.07
2019-05-05T10:38:04.578Z,995.12
2019-05-05T10:39:04.539Z,995.05
2019-05-05T10:40:04.530Z,995.11
2019-05-05T10:41:04.515Z,995.13
2019-05-05T10:42:04.515Z,995.10
2019-05-05T10:43:04.681Z,995.14
2019-05-05T10:44:04.478Z,995.12
2019-05-05T10:45:04.478Z,995.11
2019-05-05T10:46:04.447Z,995.12
2019-05-05T10:47:04.774Z,995.12
2019-05-05T10:48:04.417Z,995.09
2019-05-05T10:49:04.417Z,995.07
2019-05-05T10:50:05.016Z,995.03
2019-05-05T10:51:04.413Z,995.04
2019-05-05T10:52:04.361Z,994.99
2019-05-05T10:53:04.819Z,995.03
2019-05-05T10:54:04.326Z,995.04
2019-05-05T10:55:04.327Z,995.02
2019-05-05T10:56:04.528Z,994.98
2019-05-05T10:57:04.318Z,994.97
2019-05-05T10:58:04.287Z,995.01
2019-05-05T10:59:04.259Z,995.00
2019-05-05T11:00:12.191Z,994.96
2019-05-05T11:01:04.435Z,994.95
2019-05-05T11:02:04.919Z,994.92
2019-05-05T11:03:04.207Z,994.92
2019-05-05T11:04:04.204Z,994.88
2019-05-05T11:05:04.192Z,994.92
2019-05-05T11:06:04.639Z,994.90
2019-05-05T11:07:04.407Z,994.87
2019-05-05T11:08:04.419Z,994.84
2019-05-05T11:09:04.452Z,994.88
2019-05-05T11:10:04.110Z,994.92
2019-05-05T11:11:04.385Z,994.93
2019-05-05T11:12:04.081Z,994.95
2019-05-05T11:13:04.088Z,994.92
2019-05-05T11:14:04.067Z,994.93
2019-05-05T11:15:04.155Z,994.90
2019-05-05T11:16:04.130Z,994.88
2019-05-05T11:17:04.332Z,994.89
2019-05-05T11:18:04.185Z,994.85
2019-05-05T11:19:04.399Z,994.79
2019-05-05T11:20:03.992Z,994.82
2019-05-05T11:21:04.127Z,994.78
2019-05-05T11:22:03.965Z,994.78
2019-05-05T11:23:04.913Z,994.80
2019-05-05T11:24:03.941Z,994.81
2019-05-05T11:25:05.099Z,994.85
2019-05-05T11:26:03.927Z,994.87
2019-05-05T11:27:04.532Z,994.81
2019-05-05T11:28:03.902Z,994.87
2019-05-05T11:29:04.297Z,994.88
2019-05-05T11:30:04.119Z,994.87
2019-05-05T11:31:04.450Z,994.88
2019-05-05T11:32:03.866Z,994.84
2019-05-05T11:33:04.115Z,994.88
2019-05-05T11:34:03.836Z,994.88
2019-05-05T11:35:04.741Z,994.87
2019-05-05T11:36:04.446Z,994.93
2019-05-05T11:37:03.826Z,994.91
2019-05-05T11:38:03.803Z,994.90
2019-05-05T11:39:04.080Z,994.92
2019-05-05T11:40:04.234Z,994.88
2019-05-05T11:41:04.941Z,994.89
2019-05-05T11:42:04.443Z,994.87
2019-05-05T11:43:03.913Z,994.86
2019-05-05T11:44:04.141Z,994.86
2019-05-05T11:45:04.278Z,994.86
2019-05-05T11:46:03.732Z,994.88
2019-05-05T11:47:03.830Z,994.87
2019-05-05T11:48:03.722Z,994.84
2019-05-05T11:49:04.955Z,994.89
2019-05-05T11:50:04.337Z,994.90
2019-05-05T11:51:04.505Z,994.90
2019-05-05T11:52:04.610Z,994.84
2019-05-05T11:53:03.953Z,994.88
2019-05-05T11:54:04.677Z,994.86
2019-05-05T11:55:11.669Z,994.93
2019-05-05T11:56:04.311Z,994.90
2019-05-05T11:57:04.333Z,994.90
2019-05-05T11:58:03.721Z,994.91
2019-05-05T11:59:04.038Z,994.92
2019-05-05T12:00:03.894Z,994.97
2019-05-05T12:01:03.913Z,994.90
2019-05-05T12:02:03.853Z,994.98
2019-05-05T12:03:03.944Z,994.97
2019-05-05T12:04:04.177Z,994.96
2019-05-05T12:05:04.548Z,994.96
2019-05-05T12:06:04.118Z,994.95
2019-05-05T12:07:04.192Z,994.93
2019-05-05T12:08:03.961Z,994.96
2019-05-05T12:09:03.564Z,994.94
2019-05-05T12:10:03.542Z,994.95
2019-05-05T12:11:04.634Z,994.95
2019-05-05T12:12:03.841Z,995.00
2019-05-05T12:13:04.105Z,994.97
2019-05-05T12:14:03.855Z,994.97
2019-05-05T12:15:04.311Z,994.96
2019-05-05T12:16:04.536Z,994.92
2019-05-05T12:17:04.567Z,994.94
2019-05-05T12:18:03.870Z,994.96
2019-05-05T12:19:03.445Z,994.96
2019-05-05T12:20:04.753Z,995.01
2019-05-05T12:21:05.228Z,994.99
2019-05-05T12:22:03.414Z,994.98
2019-05-05T12:23:04.634Z,994.95
2019-05-05T12:24:03.867Z,994.93
2019-05-05T12:25:04.117Z,994.94
2019-05-05T12:26:04.694Z,994.91
2019-05-05T12:27:03.774Z,994.93
2019-05-05T12:28:04.468Z,994.94
2019-05-05T12:29:03.335Z,994.95
2019-05-05T12:30:03.893Z,994.97
2019-05-05T12:31:03.617Z,994.97
2019-05-05T12:32:03.279Z,994.96
2019-05-05T12:33:04.771Z,994.99
2019-05-05T12:34:03.934Z,994.96
2019-05-05T12:35:04.238Z,995.01
2019-05-05T12:36:04.411Z,995.00
2019-05-05T12:37:05.182Z,994.97
2019-05-05T12:38:03.220Z,994.99
2019-05-05T12:39:03.730Z,995.00
2019-05-05T12:40:03.962Z,995.01
2019-05-05T12:41:04.355Z,994.98
2019-05-05T12:42:04.776Z,995.02
2019-05-05T12:44:53.752Z,994.98
2019-05-05T12:45:53.971Z,994.97
2019-05-05T12:48:04.500Z,994.97
2019-05-05T12:51:04.163Z,994.96
2019-05-05T12:52:04.624Z,994.95
2019-05-05T12:54:25.060Z,994.94
2019-05-05T12:55:38.249Z,994.97
2019-05-05T12:57:31.358Z,995.03
2019-05-05T12:58:33.462Z,995.02
2019-05-05T13:00:35.390Z,995.05
2019-05-05T13:01:35.370Z,995.05
2019-05-05T13:02:35.350Z,995.00
2019-05-05T13:03:35.333Z,995.05
2019-05-05T13:04:35.315Z,995.04
2019-05-05T13:05:35.323Z,995.02
2019-05-05T13:06:35.294Z,995.03
2019-05-05T13:07:35.277Z,995.03
2019-05-05T13:08:35.269Z,995.04
2019-05-05T13:09:35.255Z,995.03
2019-05-05T13:10:35.241Z,995.06
2019-05-05T13:11:35.230Z,995.03
2019-05-05T13:12:35.212Z,995.03
2019-05-05T13:13:35.199Z,995.05
2019-05-05T13:14:35.182Z,995.10
2019-05-05T13:15:35.176Z,995.09
2019-05-05T13:16:35.160Z,995.03
2019-05-05T13:17:35.149Z,995.03
2019-05-05T13:18:35.133Z,995.08
2019-05-05T13:19:35.123Z,995.05
2019-05-05T13:20:35.102Z,995.07
2019-05-05T13:21:35.108Z,995.02
2019-05-05T13:22:35.081Z,995.03
2019-05-05T13:23:35.066Z,995.01
2019-05-05T13:24:35.110Z,995.00
2019-05-05T13:25:35.038Z,995.00
2019-05-05T13:26:35.023Z,995.04
2019-05-05T13:27:35.032Z,995.03
2019-05-05T13:28:35.016Z,995.01
2019-05-05T13:29:34.979Z,995.02
2019-05-05T13:30:34.970Z,995.02
2019-05-05T13:31:34.956Z,995.01
2019-05-05T13:41:13.265Z,994.91
2019-05-05T13:42:13.821Z,994.94
2019-05-05T13:43:14.448Z,994.90
2019-05-05T13:44:14.836Z,994.92
2019-05-05T13:45:14.504Z,994.85
2019-05-05T13:46:13.964Z,994.88
2019-05-05T13:47:13.182Z,994.89
2019-05-05T13:48:14.084Z,994.94
2019-05-05T13:49:13.485Z,994.94
2019-05-05T13:50:14.197Z,994.95
2019-05-05T13:51:14.717Z,994.93
2019-05-05T13:52:13.893Z,994.95
2019-05-05T13:53:14.395Z,994.92
2019-05-05T13:54:13.641Z,994.93
2019-05-05T13:55:13.896Z,994.95
2019-05-05T13:56:15.344Z,994.96
2019-05-05T13:57:14.429Z,994.93
2019-05-05T13:58:14.664Z,994.90
2019-05-05T13:59:14.093Z,994.93
2019-05-05T14:00:14.107Z,994.86
2019-05-05T14:01:14.488Z,994.85
2019-05-05T14:02:13.806Z,994.81
2019-05-05T14:03:13.034Z,994.86
2019-05-05T14:04:13.021Z,994.85
2019-05-05T14:05:13.553Z,994.89
2019-05-05T14:06:13.786Z,994.92
2019-05-05T14:07:13.000Z,994.94
2019-05-05T14:08:14.714Z,994.90
2019-05-05T14:09:13.783Z,994.89
2019-05-05T14:10:14.434Z,994.89
2019-05-05T14:11:14.254Z,994.85
2019-05-05T14:12:14.633Z,994.85
2019-05-05T14:13:15.114Z,994.85
2019-05-05T14:14:13.815Z,994.83
2019-05-05T14:15:12.909Z,994.82
2019-05-05T14:16:14.311Z,994.79
2019-05-05T14:17:14.722Z,994.78
2019-05-05T14:18:14.279Z,994.77
2019-05-05T14:19:14.624Z,994.74
2019-05-05T14:20:14.648Z,994.76
2019-05-05T14:21:14.049Z,994.73
2019-05-05T14:22:12.828Z,994.72
2019-05-05T14:23:14.775Z,994.70
2019-05-05T14:24:14.367Z,994.68